Time;durP1;ratioP1;P1;durP2;ratioP2;P2;SDS_P1;SDS_P2;PMS_P1;PMS_P2;Temp;Humidity;BMP_temperature;BMP_pressure;BME280_temperature;BME280_humidity;BME280_pressure;Samples;Min_cycle;Max_cycle;Signal;HPM_P1;HPM_P2
2022/11/21 00:00:11;;;;;;;33.35;11.05;;;;;;;4.77;100.00;100407.00;5055757;28;20056;-44
2022/11/21 00:02:36;;;;;;;27.17;9.95;;;;;;;4.77;100.00;100413.78;5055403;28;20480;-47
2022/11/21 00:05:01;;;;;;;32.80;10.05;;;;;;;4.73;100.00;100424.69;5055519;28;20057;-45
2022/11/21 00:07:26;;;;;;;37.30;10.88;;;;;;;4.70;100.00;100444.94;5055839;28;20380;-44
2022/11/21 00:09:52;;;;;;;33.67;10.52;;;;;;;4.71;100.00;100451.81;5055491;28;20025;-44
2022/11/21 00:12:17;;;;;;;41.97;11.10;;;;;;;4.73;100.00;100457.88;5055241;28;20469;-45
2022/11/21 00:14:42;;;;;;;35.67;12.27;;;;;;;4.73;100.00;100443.41;5055133;28;20029;-46
2022/11/21 00:17:08;;;;;;;40.17;12.82;;;;;;;4.71;100.00;100422.06;5055579;28;20025;-46
2022/11/21 00:19:34;;;;;;;42.55;11.90;;;;;;;4.73;100.00;100422.13;5054839;28;20033;-48
2022/11/21 00:21:59;;;;;;;42.58;13.55;;;;;;;4.73;100.00;100440.00;5055535;28;20533;-45
2022/11/21 00:24:24;;;;;;;41.03;12.48;;;;;;;4.73;100.00;100442.56;5054820;28;20036;-47
2022/11/21 00:26:50;;;;;;;43.45;13.20;;;;;;;4.74;100.00;100446.84;5055239;28;20483;-45
2022/11/21 00:29:15;;;;;;;44.95;13.68;;;;;;;4.74;100.00;100446.84;5055286;28;20537;-45
2022/11/21 00:31:40;;;;;;;44.80;13.85;;;;;;;4.71;100.00;100460.34;5054416;28;20031;-46
2022/11/21 00:34:05;;;;;;;54.40;14.10;;;;;;;4.70;100.00;100470.47;5055316;28;20032;-47
2022/11/21 00:36:31;;;;;;;39.70;14.73;;;;;;;4.65;100.00;100462.59;5055337;28;20025;-45
2022/11/21 00:38:56;;;;;;;55.65;13.88;;;;;;;4.62;100.00;100462.44;5054740;28;20060;-45
2022/11/21 00:41:21;;;;;;;50.42;13.30;;;;;;;4.59;100.00;100463.19;5055113;28;20035;-48
2022/11/21 00:43:46;;;;;;;47.58;13.80;;;;;;;4.58;100.00;100464.00;5054758;28;20550;-48
2022/11/21 00:46:12;;;;;;;46.50;13.10;;;;;;;4.58;100.00;100451.25;5054508;28;20031;-48
2022/11/21 00:48:37;;;;;;;54.50;19.15;;;;;;;4.54;100.00;100413.59;5054754;28;20029;-48
2022/11/21 00:51:02;;;;;;;75.05;32.60;;;;;;;4.43;100.00;100427.53;5055123;28;20103;-48
2022/11/21 00:53:28;;;;;;;73.65;32.13;;;;;;;4.34;100.00;100420.31;5054366;28;20357;-48
2022/11/21 00:55:53;;;;;;;83.30;32.97;;;;;;;4.23;100.00;100435.09;5054388;28;20024;-47
2022/11/21 00:58:19;;;;;;;98.85;39.03;;;;;;;4.12;100.00;100433.72;5054840;28;20052;-48
2022/11/21 01:00:44;;;;;;;97.43;44.08;;;;;;;4.03;100.00;100440.91;5053955;28;20029;-49
2022/11/21 01:03:09;;;;;;;125.70;48.47;;;;;;;3.95;100.00;100449.06;5054384;28;20029;-46
2022/11/21 01:05:34;;;;;;;117.80;50.67;;;;;;;3.89;100.00;100447.88;5054588;28;20090;-47
2022/11/21 01:08:00;;;;;;;129.35;54.10;;;;;;;3.81;100.00;100450.03;5054311;28;20036;-48
2022/11/21 01:10:25;;;;;;;144.77;57.42;;;;;;;3.74;100.00;100445.41;5054490;28;20101;-48
2022/11/21 01:12:50;;;;;;;149.45;67.43;;;;;;;3.65;100.00;100460.25;5054378;28;20043;-48
2022/11/21 01:15:15;;;;;;;166.15;68.97;;;;;;;3.55;100.00;100454.69;5053988;28;20032;-47
2022/11/21 01:17:41;;;;;;;159.13;68.78;;;;;;;3.44;100.00;100456.66;5053990;28;20064;-48
2022/11/21 01:20:07;;;;;;;160.95;70.53;;;;;;;3.36;100.00;100457.09;5054510;28;20032;-48
2022/11/21 01:22:32;;;;;;;178.48;75.90;;;;;;;3.26;100.00;100456.56;5053669;28;20028;-48
2022/11/21 01:24:57;;;;;;;169.27;74.05;;;;;;;3.19;100.00;100463.81;5054158;28;20037;-46
2022/11/21 01:27:22;;;;;;;163.98;73.05;;;;;;;3.09;100.00;100460.78;5054415;28;20021;-48
2022/11/21 01:29:48;;;;;;;178.63;76.15;;;;;;;3.03;100.00;100459.59;5053515;28;20033;-45
2022/11/21 01:32:13;;;;;;;170.13;75.63;;;;;;;2.98;100.00;100449.13;5053921;28;20028;-47
2022/11/21 01:34:38;;;;;;;179.85;78.82;;;;;;;2.96;100.00;100450.75;5053514;28;20021;-47
2022/11/21 01:37:03;;;;;;;170.52;75.20;;;;;;;2.92;100.00;100453.94;5054264;28;20029;-48
2022/11/21 01:39:29;;;;;;;186.55;77.82;;;;;;;2.96;100.00;100451.59;5053901;28;20438;-45
2022/11/21 01:41:54;;;;;;;177.32;77.53;;;;;;;2.90;100.00;100447.88;5053215;28;20068;-47
2022/11/21 01:44:21;;;;;;;171.75;78.30;;;;;;;2.88;100.00;100450.34;5053646;28;20439;-47
2022/11/21 01:46:47;;;;;;;165.88;74.88;;;;;;;2.92;100.00;100436.97;5053591;28;20029;-47
2022/11/21 01:49:18;;;;;;;190.98;79.25;;;;;;;2.91;100.00;100437.75;5053570;28;20151;-47
2022/11/21 01:52:09;;;;;;;195.45;82.00;;;;;;;2.90;100.00;100428.38;5053347;28;20453;-49
2022/11/21 01:54:48;;;;;;;182.55;76.78;;;;;;;2.89;100.00;100439.38;5053566;28;20040;-48
2022/11/21 01:57:24;;;;;;;187.35;78.38;;;;;;;2.86;100.00;100454.44;5053320;28;20082;-47
2022/11/21 01:59:55;;;;;;;197.27;79.30;;;;;;;2.84;100.00;100460.25;5053344;28;20048;-48
2022/11/21 02:02:26;;;;;;;205.25;82.55;;;;;;;2.82;100.00;100457.63;5053618;28;20384;-49
2022/11/21 02:04:52;;;;;;;199.50;83.78;;;;;;;2.78;100.00;100463.34;5052822;28;20534;-48
2022/11/21 02:07:21;;;;;;;206.95;85.93;;;;;;;2.75;100.00;100461.50;5053243;28;20544;-47
2022/11/21 02:09:53;;;;;;;198.73;82.28;;;;;;;2.72;100.00;100456.22;5052849;28;20055;-47
2022/11/21 02:12:30;;;;;;;193.20;81.75;;;;;;;2.70;100.00;100464.56;5053172;28;20373;-48
2022/11/21 02:14:57;;;;;;;192.68;81.30;;;;;;;2.64;100.00;100463.44;5052714;28;20037;-47
2022/11/21 02:17:24;;;;;;;193.40;80.70;;;;;;;2.61;100.00;100462.44;5053026;28;20040;-47
2022/11/21 02:20:02;;;;;;;178.90;78.20;;;;;;;2.61;100.00;100462.44;5052890;28;20032;-47
2022/11/21 02:22:55;;;;;;;175.43;74.80;;;;;;;2.49;100.00;100454.97;5053226;28;20534;-47
2022/11/21 02:25:24;;;;;;;157.70;73.15;;;;;;;2.43;100.00;100452.97;5052673;28;20474;-46
2022/11/21 02:27:54;;;;;;;190.48;81.57;;;;;;;2.50;100.00;100463.50;5052593;28;20025;-48
2022/11/21 02:30:19;;;;;;;185.90;81.32;;;;;;;2.46;100.00;100472.59;5053065;28;20036;-49
2022/11/21 02:32:48;;;;;;;187.70;80.13;;;;;;;2.41;100.00;100479.97;5052474;28;20029;-47
2022/11/21 02:35:15;;;;;;;209.00;84.60;;;;;;;2.42;100.00;100468.16;5053089;28;20017;-47
2022/11/21 02:37:43;;;;;;;223.40;88.88;;;;;;;2.50;100.00;100463.50;5053042;28;20061;-48
2022/11/21 02:40:16;;;;;;;217.50;85.53;;;;;;;2.42;100.00;100458.84;5052613;28;20035;-47
2022/11/21 02:43:08;;;;;;;221.50;85.53;;;;;;;2.44;100.00;100461.47;5052382;28;20025;-47
2022/11/21 02:45:38;;;;;;;226.50;86.55;;;;;;;2.41;100.00;100479.09;5048833;28;20507;-47
2022/11/21 02:48:03;;;;;;;238.43;88.25;;;;;;;2.41;100.00;100474.03;5052691;28;20029;-48
2022/11/21 02:50:31;;;;;;;251.98;90.05;;;;;;;2.42;100.00;100468.16;5052943;28;20116;-46
2022/11/21 02:52:57;;;;;;;230.77;87.93;;;;;;;2.43;100.00;100482.63;5052377;28;20032;-48
2022/11/21 02:55:23;;;;;;;251.82;91.38;;;;;;;2.45;100.00;100496.28;5052456;28;20029;-45
2022/11/21 02:57:49;;;;;;;262.85;93.32;;;;;;;2.45;100.00;100493.75;5052518;28;20061;-45
2022/11/21 03:00:14;;;;;;;276.38;93.25;;;;;;;2.43;100.00;100492.81;5052384;28;20032;-48
2022/11/21 03:02:40;;;;;;;279.95;94.35;;;;;;;2.41;100.00;100487.59;5052145;28;20025;-44
2022/11/21 03:05:07;;;;;;;281.10;94.00;;;;;;;2.40;100.00;100479.88;5052825;28;20029;-44
2022/11/21 03:07:33;;;;;;;272.95;92.97;;;;;;;2.40;100.00;100478.25;5051862;28;20059;-49
2022/11/21 03:09:58;;;;;;;246.07;92.90;;;;;;;2.43;100.00;100463.13;5052370;28;20033;-46
2022/11/21 03:12:23;;;;;;;276.25;95.90;;;;;;;2.42;100.00;100455.44;5052870;28;20109;-47
2022/11/21 03:14:49;;;;;;;285.73;93.05;;;;;;;2.42;100.00;100451.22;5051954;28;20037;-48
2022/11/21 03:17:14;;;;;;;227.15;90.88;;;;;;;2.49;100.00;100461.72;5052500;28;20053;-47
2022/11/21 03:19:40;;;;;;;334.25;99.65;;;;;;;2.52;100.00;100457.69;5052360;28;20029;-47
2022/11/21 03:22:05;;;;;;;290.33;95.57;;;;;;;2.51;100.00;100460.16;5051983;28;20021;-46
2022/11/21 03:24:30;;;;;;;293.42;95.40;;;;;;;2.51;100.00;100450.84;5052073;28;20029;-46
2022/11/21 03:26:55;;;;;;;277.55;92.88;;;;;;;2.50;100.00;100449.09;5055426;28;20033;-47
2022/11/21 03:29:21;;;;;;;282.33;92.65;;;;;;;2.49;100.00;100447.34;5056261;28;20033;-47
2022/11/21 03:31:46;;;;;;;252.32;89.68;;;;;;;2.50;100.00;100433.84;5056099;28;20461;-48
2022/11/21 03:34:11;;;;;;;349.35;97.28;;;;;;;2.49;100.00;100432.06;5055892;28;20150;-47
2022/11/21 03:36:37;;;;;;;252.32;93.25;;;;;;;2.55;100.00;100437.50;5055905;28;20037;-48
2022/11/21 03:39:02;;;;;;;270.83;97.18;;;;;;;2.58;100.00;100436.78;5056508;28;20036;-46
2022/11/21 03:41:30;;;;;;;424.58;104.00;;;;;;;2.51;100.00;100443.22;5055967;28;20064;-47
2022/11/21 03:44:01;;;;;;;306.23;93.80;;;;;;;2.49;100.00;100442.25;5056196;28;20033;-48
2022/11/21 03:46:28;;;;;;;361.42;97.65;;;;;;;2.51;100.00;100445.75;5056447;28;20021;-48
2022/11/21 03:48:53;;;;;;;297.38;97.97;;;;;;;2.57;100.00;100445.22;5055409;28;20100;-49
2022/11/21 03:51:19;;;;;;;253.52;89.47;;;;;;;2.55;100.00;100442.59;5055897;28;20536;-46
2022/11/21 03:53:44;;;;;;;357.67;96.95;;;;;;;2.56;100.00;100444.34;5055692;28;20029;-46
2022/11/21 03:56:10;;;;;;;332.88;96.97;;;;;;;2.52;100.00;100446.63;5055452;28;20380;-48
2022/11/21 03:58:35;;;;;;;375.55;96.38;;;;;;;2.50;100.00;100448.22;5055509;28;20083;-48
2022/11/21 04:01:01;;;;;;;334.90;91.85;;;;;;;2.46;100.00;100439.53;5056033;28;20029;-48
2022/11/21 04:03:26;;;;;;;320.85;95.18;;;;;;;2.43;100.00;100439.38;5055635;28;20040;-44
2022/11/21 04:05:51;;;;;;;259.80;91.13;;;;;;;2.43;100.00;100442.78;5055334;28;20048;-47
2022/11/21 04:08:16;;;;;;;341.95;93.78;;;;;;;2.43;100.00;100441.94;5055721;28;20476;-49
2022/11/21 04:10:52;;;;;;;346.80;98.10;;;;;;;2.43;100.00;100442.78;5054904;28;20027;-48
2022/11/21 04:13:17;;;;;;;485.33;108.43;;;;;;;2.40;100.00;100442.63;5055628;28;20025;-47
2022/11/21 04:15:44;;;;;;;382.73;100.30;;;;;;;2.37;100.00;100450.06;5055521;28;20075;-45
2022/11/21 04:18:10;;;;;;;333.50;98.63;;;;;;;2.37;100.00;100451.75;5055331;28;20036;-48
2022/11/21 04:20:35;;;;;;;381.08;104.75;;;;;;;2.38;100.00;100443.34;5055529;28;20108;-48
2022/11/21 04:23:00;;;;;;;405.33;101.60;;;;;;;2.35;100.00;100448.22;5055414;28;20096;-47
2022/11/21 04:25:25;;;;;;;445.25;101.38;;;;;;;2.33;100.00;100454.91;5055102;28;20167;-47
2022/11/21 04:27:55;;;;;;;429.50;100.15;;;;;;;2.29;100.00;100462.34;5055173;28;20548;-47
2022/11/21 04:30:20;;;;;;;451.33;101.63;;;;;;;2.26;100.00;100459.66;5055495;28;20033;-47
2022/11/21 04:32:46;;;;;;;355.77;95.18;;;;;;;2.27;100.00;100446.16;5054298;28;20021;-48
2022/11/21 04:35:11;;;;;;;535.85;108.95;;;;;;;2.28;100.00;100444.47;5055287;28;20021;-48
2022/11/21 04:37:38;;;;;;;486.67;103.40;;;;;;;2.27;100.00;100430.91;5053679;28;20032;-47
2022/11/21 04:40:04;;;;;;;464.73;99.50;;;;;;;2.25;100.00;100432.47;5055132;28;20017;-46
2022/11/21 04:42:29;;;;;;;277.48;89.57;;;;;;;2.30;100.00;100431.06;5055392;28;20027;-49
2022/11/21 04:44:54;;;;;;;328.77;95.47;;;;;;;2.28;100.00;100432.63;5054330;28;20052;-47
2022/11/21 04:47:19;;;;;;;306.65;91.68;;;;;;;2.29;100.00;100425.88;5055056;28;20044;-47
2022/11/21 04:49:45;;;;;;;250.90;89.72;;;;;;;2.36;100.00;100419.47;5054741;28;20027;-48
2022/11/21 04:52:11;;;;;;;292.80;92.15;;;;;;;2.28;100.00;100419.03;5054611;28;20040;-48
2022/11/21 04:54:36;;;;;;;239.30;85.63;;;;;;;2.26;100.00;100413.88;5054605;28;20037;-48
2022/11/21 04:57:01;;;;;;;259.33;87.00;;;;;;;2.27;100.00;100413.09;5054872;28;20025;-45
2022/11/21 04:59:27;;;;;;;421.77;97.07;;;;;;;2.33;100.00;100414.22;5054282;28;20111;-49
2022/11/21 05:01:52;;;;;;;251.52;86.45;;;;;;;2.30;100.00;100409.84;5054243;28;20032;-48
2022/11/21 05:04:17;;;;;;;516.88;98.70;;;;;;;2.24;100.00;100406.97;5054713;28;20074;-46
2022/11/21 05:06:42;;;;;;;338.73;87.50;;;;;;;2.19;100.00;100411.78;5053805;28;20029;-48
2022/11/21 05:09:08;;;;;;;499.98;93.75;;;;;;;2.18;100.00;100410.00;5054537;28;20021;-48
2022/11/21 05:14:17;;;;;;;389.48;88.80;;;;;;;2.15;100.00;100394.59;5054507;28;20036;-48
2022/11/21 05:16:42;;;;;;;422.30;97.13;;;;;;;2.20;100.00;100390.66;5054263;28;20104;-48
2022/11/21 05:19:08;;;;;;;405.27;98.28;;;;;;;2.25;100.00;100396.00;5054466;28;20017;-48
2022/11/21 05:21:33;;;;;;;479.73;98.63;;;;;;;2.23;100.00;100395.91;5053800;28;20465;-49
2022/11/21 05:23:58;;;;;;;546.42;97.78;;;;;;;2.20;100.00;100394.88;5054319;28;20033;-46
2022/11/21 05:26:24;;;;;;;377.73;83.95;;;;;;;2.16;100.00;100391.28;5054396;28;20366;-48
2022/11/21 05:28:49;;;;;;;489.42;93.47;;;;;;;2.15;100.00;100381.88;5053158;28;20147;-47
2022/11/21 05:31:14;;;;;;;315.60;83.15;;;;;;;2.16;100.00;100383.66;5054287;28;20496;-47
2022/11/21 05:33:39;;;;;;;487.30;97.72;;;;;;;2.14;100.00;100385.22;5053813;28;20033;-46
2022/11/21 05:36:05;;;;;;;263.30;86.22;;;;;;;2.18;100.00;100387.13;5053878;28;20033;-48
2022/11/21 05:38:30;;;;;;;574.88;101.32;;;;;;;2.14;100.00;100382.69;5054231;28;20032;-44
2022/11/21 05:40:55;;;;;;;684.67;109.05;;;;;;;2.18;100.00;100387.13;5053429;28;20052;-48
2022/11/21 05:46:04;;;;;;;622.85;105.70;;;;;;;2.23;100.00;100383.19;5054182;28;20418;-47
2022/11/21 05:48:29;;;;;;;367.70;85.97;;;;;;;2.26;100.00;100378.28;5053077;28;20461;-47
2022/11/21 05:50:55;;;;;;;232.75;84.20;;;;;;;2.30;100.00;100369.16;5052839;28;20021;-47
2022/11/21 05:53:20;;;;;;;823.70;123.05;;;;;;;2.26;100.00;100372.31;5053817;28;20063;-47
2022/11/21 05:55:46;;;;;;;336.92;89.50;;;;;;;2.32;100.00;100371.78;5052967;28;20472;-48
2022/11/21 05:58:11;;;;;;;619.75;108.22;;;;;;;2.27;100.00;100368.97;5053379;28;20084;-47
2022/11/21 06:00:37;;;;;;;380.52;92.68;;;;;;;2.32;100.00;100365.03;5053349;28;20049;-48
2022/11/21 06:05:47;;;;;;;577.00;105.07;;;;;;;2.33;100.00;100348.97;5053421;28;20468;-45
2022/11/21 06:08:12;;;;;;;514.80;106.22;;;;;;;2.33;100.00;100356.59;5053572;28;20534;-47
2022/11/21 06:10:38;;;;;;;409.65;98.90;;;;;;;2.37;100.00;100357.66;5052808;28;20112;-46
2022/11/21 06:13:20;;;;;;;434.35;100.63;;;;;;;2.37;100.00;100357.66;5053305;28;20044;-46
2022/11/21 06:15:46;;;;;;;270.83;94.95;;;;;;;2.51;100.00;100358.41;5053320;28;20035;-45
2022/11/21 06:18:11;;;;;;;414.90;98.25;;;;;;;2.46;100.00;100355.59;5052567;28;20021;-47
2022/11/21 06:20:36;;;;;;;322.83;94.90;;;;;;;2.49;100.00;100365.06;5053094;28;20056;-45
2022/11/21 06:23:01;;;;;;;438.52;101.35;;;;;;;2.50;100.00;100360.06;5052869;28;20029;-47
2022/11/21 06:25:27;;;;;;;325.70;97.18;;;;;;;2.54;100.00;100358.56;5052996;28;20021;-44
2022/11/21 06:27:52;;;;;;;325.42;95.72;;;;;;;2.56;100.00;100357.84;5052952;28;20091;-48
2022/11/21 06:30:17;;;;;;;496.15;108.35;;;;;;;2.58;100.00;100355.38;5052989;28;20029;-48
2022/11/21 06:32:42;;;;;;;353.33;99.90;;;;;;;2.61;100.00;100350.47;5052642;28;20468;-47
2022/11/21 06:35:08;;;;;;;378.70;101.72;;;;;;;2.63;100.00;100334.50;5053063;28;20025;-46
2022/11/21 06:37:33;;;;;;;308.38;96.50;;;;;;;2.66;100.00;100332.91;5052239;28;20025;-47
2022/11/21 06:39:58;;;;;;;305.95;96.70;;;;;;;2.67;100.00;100329.56;5052788;28;20021;-46
2022/11/21 06:42:24;;;;;;;394.67;105.28;;;;;;;2.69;100.00;100328.00;5053254;28;20075;-47
2022/11/21 06:44:49;;;;;;;322.00;102.78;;;;;;;2.70;100.00;100325.53;5052220;28;20362;-46
2022/11/21 06:47:14;;;;;;;436.73;111.97;;;;;;;2.72;100.00;100330.69;5052662;28;20029;-48
2022/11/21 06:49:39;;;;;;;313.33;100.93;;;;;;;2.75;100.00;100328.28;5052651;28;20033;-48
2022/11/21 06:52:05;;;;;;;335.85;100.63;;;;;;;2.77;100.00;100336.88;5052186;28;20021;-48
2022/11/21 06:54:30;;;;;;;320.33;102.80;;;;;;;2.80;100.00;100334.50;5052461;28;20036;-44
2022/11/21 06:56:57;;;;;;;315.45;104.00;;;;;;;2.84;100.00;100328.81;5052505;28;20103;-45
2022/11/21 06:59:23;;;;;;;354.85;110.75;;;;;;;2.88;100.00;100329.81;5051964;28;20450;-48
2022/11/21 07:01:48;;;;;;;311.45;103.25;;;;;;;2.91;100.00;100319.81;5051854;28;20021;-47
2022/11/21 07:04:13;;;;;;;314.38;101.80;;;;;;;2.96;100.00;100326.00;5052731;28;20062;-48
2022/11/21 07:06:39;;;;;;;246.23;94.82;;;;;;;3.05;100.00;100323.94;5051793;28;20048;-48
2022/11/21 07:09:04;;;;;;;303.95;99.40;;;;;;;3.03;100.00;100329.75;5052421;28;20036;-48
2022/11/21 07:11:29;;;;;;;291.65;97.57;;;;;;;3.04;100.00;100328.94;5052588;28;20056;-47
2022/11/21 07:13:55;;;;;;;297.98;102.25;;;;;;;3.09;100.00;100323.28;5051683;28;20028;-47
2022/11/21 07:16:20;;;;;;;281.38;103.85;;;;;;;3.12;100.00;100320.91;5052494;28;20546;-46
2022/11/21 07:18:46;;;;;;;278.05;98.45;;;;;;;3.13;100.00;100317.53;5052385;28;20469;-49
2022/11/21 07:21:11;;;;;;;283.67;94.78;;;;;;;3.13;100.00;100309.03;5051881;28;20111;-47
2022/11/21 07:23:37;;;;;;;287.88;91.03;;;;;;;3.15;100.00;100299.81;5052131;28;20052;-48
2022/11/21 07:26:07;;;;;;;326.40;97.18;;;;;;;3.12;100.00;100305.63;5052429;28;20120;-48
2022/11/21 07:28:33;;;;;;;270.77;93.28;;;;;;;3.15;100.00;100304.03;5051629;28;20087;-49
2022/11/21 07:31:00;;;;;;;268.98;88.10;;;;;;;3.16;100.00;100306.66;5052563;28;20036;-47
2022/11/21 07:33:26;;;;;;;304.73;121.20;;;;;;;3.23;100.00;100308.72;5052057;28;20031;-47
2022/11/21 07:35:51;;;;;;;269.30;100.95;;;;;;;3.29;100.00;100311.56;5051908;28;20115;-48
2022/11/21 07:38:17;;;;;;;284.52;98.88;;;;;;;3.36;100.00;100315.31;5052437;28;20028;-49
2022/11/21 07:40:43;;;;;;;273.95;98.95;;;;;;;3.42;100.00;100309.63;5051426;28;20116;-49
2022/11/21 07:43:09;;;;;;;241.30;92.28;;;;;;;3.47;100.00;100313.28;5051941;28;20411;-48
2022/11/21 07:45:34;;;;;;;290.13;120.18;;;;;;;3.47;100.00;100305.63;5052244;28;20017;-47
2022/11/21 07:48:01;;;;;;;263.08;105.68;;;;;;;3.50;100.00;100320.19;5051769;28;20086;-48
2022/11/21 07:50:27;;;;;;;251.93;98.68;;;;;;;3.53;100.00;100308.50;5052165;28;20060;-49
2022/11/21 07:52:57;;;;;;;230.60;87.68;;;;;;;3.57;100.00;100310.38;5052032;28;20104;-48
2022/11/21 07:55:23;;;;;;;220.82;81.40;;;;;;;3.59;100.00;100303.69;5051503;28;20053;-48
2022/11/21 07:57:57;;;;;;;221.43;86.38;;;;;;;3.60;100.00;100305.44;5051412;28;20080;-48
2022/11/21 08:00:22;;;;;;;240.90;105.00;;;;;;;3.59;100.00;100298.59;5052385;28;20029;-49
2022/11/21 08:02:48;;;;;;;341.17;180.98;;;;;;;3.60;100.00;100300.34;5051486;28;20083;-47
2022/11/21 08:05:13;;;;;;;255.07;113.38;;;;;;;3.63;100.00;100299.63;5051933;28;20467;-49
2022/11/21 08:07:38;;;;;;;193.63;79.88;;;;;;;3.65;100.00;100292.06;5051795;28;20029;-45
2022/11/21 08:10:04;;;;;;;214.10;80.90;;;;;;;3.67;100.00;100285.34;5051785;28;20025;-48
2022/11/21 08:12:31;;;;;;;184.75;70.88;;;;;;;3.69;100.00;100293.94;5052509;28;20033;-49
2022/11/21 08:14:57;;;;;;;170.27;65.32;;;;;;;3.74;100.00;100293.34;5055796;28;20051;-47
2022/11/21 08:17:25;;;;;;;176.50;66.80;;;;;;;3.75;100.00;100291.69;5054998;28;20048;-47
2022/11/21 08:19:50;;;;;;;162.40;63.50;;;;;;;3.76;100.00;100270.50;5055376;28;20087;-47
2022/11/21 08:22:15;;;;;;;146.52;58.70;;;;;;;3.75;100.00;100273.84;5055499;28;20376;-48
2022/11/21 08:24:41;;;;;;;141.77;58.15;;;;;;;3.76;100.00;100270.50;5054262;28;20465;-48
2022/11/21 08:27:06;;;;;;;137.93;55.92;;;;;;;3.77;100.00;100272.25;5055417;28;20090;-47
2022/11/21 08:29:31;;;;;;;133.85;53.90;;;;;;;3.76;100.00;100266.28;5054665;28;20468;-46
2022/11/21 08:31:56;;;;;;;128.93;54.53;;;;;;;3.76;100.00;100260.31;5055195;28;20040;-48
2022/11/21 08:34:22;;;;;;;117.00;50.33;;;;;;;3.77;100.00;100265.47;5055440;28;20102;-48
2022/11/21 08:36:47;;;;;;;122.95;49.35;;;;;;;3.79;100.00;100265.56;5054392;28;20076;-47
2022/11/21 08:39:12;;;;;;;114.55;48.08;;;;;;;3.81;100.00;100251.22;5055026;28;20021;-47
2022/11/21 08:44:22;;;;;;;96.68;43.67;;;;;;;3.78;100.00;100235.75;5054532;28;20080;-48
2022/11/21 08:46:47;;;;;;;95.63;40.65;;;;;;;3.83;100.00;100241.09;5054579;28;20057;-47
2022/11/21 08:49:12;;;;;;;97.90;42.10;;;;;;;3.84;100.00;100241.16;5055079;28;20431;-49
2022/11/21 08:51:37;;;;;;;98.35;40.63;;;;;;;3.85;100.00;100237.81;5054049;28;20029;-48
2022/11/21 08:54:03;;;;;;;94.60;39.60;;;;;;;3.88;100.00;100234.53;5054921;28;20104;-48
2022/11/21 08:56:28;;;;;;;88.32;37.42;;;;;;;3.91;100.00;100243.19;5055122;28;20032;-47
2022/11/21 08:58:54;;;;;;;91.38;37.78;;;;;;;3.95;100.00;100237.44;5053844;28;20045;-45
2022/11/21 09:01:20;;;;;;;93.90;37.15;;;;;;;3.98;100.00;100230.72;5054656;28;20029;-47
2022/11/21 09:03:45;;;;;;;87.10;36.13;;;;;;;4.03;100.00;100230.13;5054418;28;20032;-47
2022/11/21 09:06:12;;;;;;;80.07;36.38;;;;;;;4.03;100.00;100226.69;5054132;28;20025;-46
2022/11/21 09:08:37;;;;;;;84.82;34.80;;;;;;;4.06;100.00;100220.06;5054336;28;20051;-49
2022/11/21 09:11:05;;;;;;;90.72;34.22;;;;;;;4.08;100.00;100218.47;5054825;28;20384;-48
2022/11/21 09:13:30;;;;;;;70.93;32.67;;;;;;;4.09;100.00;100206.59;5053886;28;20017;-44
2022/11/21 09:18:42;;;;;;;69.23;29.80;;;;;;;4.15;100.00;100211.97;5054180;28;20110;-48
2022/11/21 09:21:08;;;;;;;79.63;30.83;;;;;;;4.18;100.00;100214.66;5053774;28;20465;-47
2022/11/21 09:23:33;;;;;;;67.40;28.92;;;;;;;4.22;100.00;100211.44;5053942;28;20025;-48
2022/11/21 09:26:00;;;;;;;67.75;28.27;;;;;;;4.27;100.00;100209.97;5053790;28;20037;-46
2022/11/21 09:28:25;;;;;;;60.35;26.58;;;;;;;4.33;100.00;100208.50;5054203;28;20025;-48
2022/11/21 09:30:50;;;;;;;53.38;25.73;;;;;;;4.41;100.00;100197.81;5053959;28;20164;-48
2022/11/21 09:33:16;;;;;;;62.17;24.42;;;;;;;4.57;100.00;100201.03;5053668;28;20028;-46
2022/11/21 09:35:41;;;;;;;67.45;27.23;;;;;;;4.75;100.00;100199.28;5053788;28;20033;-46
2022/11/21 09:38:07;;;;;;;56.88;25.35;;;;;;;4.92;100.00;100196.59;5054372;28;20029;-48
2022/11/21 09:40:34;;;;;;;57.42;21.75;;;;;;;5.16;100.00;100191.59;5053224;28;20033;-48
2022/11/21 09:43:30;;;;;;;58.50;24.45;;;;;;;5.38;100.00;100192.47;5053926;28;20021;-49
2022/11/21 09:46:05;;;;;;;47.95;18.27;;;;;;;5.58;100.00;100186.47;5054324;28;20078;-48
2022/11/21 09:48:39;;;;;;;41.88;16.70;;;;;;;5.75;100.00;100184.53;5053188;28;20040;-47
2022/11/21 09:51:11;;;;;;;53.55;22.85;;;;;;;5.97;100.00;100181.94;5054066;28;20032;-47
2022/11/21 09:53:45;;;;;;;52.08;25.17;;;;;;;6.13;100.00;100189.38;5053576;28;20045;-47
2022/11/21 09:56:14;;;;;;;65.32;32.50;;;;;;;6.37;100.00;100186.00;5052988;28;20061;-47
2022/11/21 09:58:47;;;;;;;37.13;16.38;;;;;;;6.33;100.00;100189.28;5053194;28;20531;-49
2022/11/21 10:01:14;;;;;;;35.20;13.02;;;;;;;6.30;100.00;100179.78;5053308;28;20025;-48
2022/11/21 10:03:45;;;;;;;27.63;13.60;;;;;;;6.43;100.00;100175.97;5053122;28;20021;-49
2022/11/21 10:06:23;;;;;;;34.53;14.20;;;;;;;6.61;100.00;100170.63;5053631;28;20025;-49
2022/11/21 10:09:03;;;;;;;33.92;13.27;;;;;;;6.65;100.00;100166.47;5052579;28;20107;-47
2022/11/21 10:12:35;;;;;;;39.22;14.45;;;;;;;6.59;100.00;100157.75;5053479;28;20037;-49
2022/11/21 10:14:35;;;;;;;37.63;13.43;;;;;;;6.54;100.00;100161.00;5053349;28;20045;-47
2022/11/21 10:17:21;;;;;;;30.48;12.88;;;;;;;6.54;100.00;100161.00;5052549;28;20473;-46
2022/11/21 10:20:11;;;;;;;30.50;13.75;;;;;;;6.65;100.00;100157.13;5053220;28;20025;-49
2022/11/21 10:22:55;;;;;;;37.13;12.77;;;;;;;6.87;100.00;100152.72;5052507;28;20215;-48
2022/11/21 10:25:27;;;;;;;29.08;11.88;;;;;;;6.99;100.00;100147.13;5052930;28;20041;-49
2022/11/21 10:28:02;;;;;;;36.03;11.75;;;;;;;7.15;100.00;100136.53;5052875;28;20473;-49
2022/11/21 10:30:28;;;;;;;29.80;11.50;;;;;;;7.13;100.00;100129.63;5052552;28;20059;-47
2022/11/21 10:33:04;;;;;;;28.20;10.85;;;;;;;7.20;100.00;100129.88;5052884;28;20092;-49
2022/11/21 10:35:39;;;;;;;35.92;12.45;;;;;;;7.07;100.00;100125.19;5052518;28;20017;-49
2022/11/21 10:38:20;;;;;;;34.72;11.80;;;;;;;6.83;100.00;100128.69;5052132;28;20503;-49
2022/11/21 10:40:54;;;;;;;33.05;12.02;;;;;;;6.75;100.00;100125.88;5052846;28;20031;-48
2022/11/21 10:46:21;;;;;;;33.20;10.85;;;;;;;6.47;100.00;100125.75;5053223;28;20066;-49
2022/11/21 10:48:59;;;;;;;32.30;11.30;;;;;;;6.55;100.00;100114.97;5052591;28;20035;-49
2022/11/21 10:51:44;;;;;;;31.23;11.32;;;;;;;6.59;100.00;100118.50;5052537;28;20064;-48
2022/11/21 10:54:33;;;;;;;32.58;11.20;;;;;;;6.53;100.00;100111.50;5052847;28;20052;-48
2022/11/21 10:57:11;;;;;;;26.00;10.40;;;;;;;6.55;100.00;100108.97;5052964;28;20028;-47
2022/11/21 10:59:36;;;;;;;39.97;10.50;;;;;;;6.63;100.00;100104.13;5051597;28;20433;-47
2022/11/21 11:02:21;;;;;;;28.88;10.55;;;;;;;6.88;100.00;100105.78;5052863;28;20116;-48
2022/11/21 11:04:47;;;;;;;30.77;10.80;;;;;;;7.22;100.00;100089.78;5051907;28;20057;-48
2022/11/21 11:07:19;;;;;;;33.22;9.85;;;;;;;7.44;100.00;100084.44;5052524;28;20049;-48
2022/11/21 11:09:46;;;;;;;23.63;8.95;;;;;;;7.68;100.00;100079.16;5052536;28;20116;-48
2022/11/21 11:12:17;;;;;;;34.10;10.10;;;;;;;8.17;100.00;100077.97;5052171;28;20024;-48
2022/11/21 11:14:53;;;;;;;32.85;9.93;;;;;;;8.40;100.00;100068.31;5052105;28;20087;-48
2022/11/21 11:17:28;;;;;;;30.65;8.75;;;;;;;8.45;98.69;100073.56;5052632;28;20025;-49
2022/11/21 11:20:32;;;;;;;29.23;8.82;;;;;;;8.67;97.63;100058.72;5051676;28;20100;-48